sensor_id;sensor_type;location;lat;lon;timestamp;pressure;altitude;pressure_sealevel;temperature;humidity
62926;BME280;55732;52.248;-0.844;2023-02-04T00:01:45;102656.92;;;7.53;82.36
62926;BME280;55732;52.248;-0.844;2023-02-04T00:04:14;102657.70;;;7.59;82.30
62926;BME280;55732;52.248;-0.844;2023-02-04T00:06:39;102657.96;;;7.64;82.38
62926;BME280;55732;52.248;-0.844;2023-02-04T00:09:07;102653.82;;;7.70;82.44
62926;BME280;55732;52.248;-0.844;2023-02-04T00:11:33;102651.83;;;7.77;82.47
62926;BME280;55732;52.248;-0.844;2023-02-04T00:13:58;102649.85;;;7.84;82.35
62926;BME280;55732;52.248;-0.844;2023-02-04T00:16:24;102659.02;;;7.88;82.32
62926;BME280;55732;52.248;-0.844;2023-02-04T00:18:49;102659.08;;;7.94;82.34
62926;BME280;55732;52.248;-0.844;2023-02-04T00:21:15;102657.38;;;8.00;82.38
62926;BME280;55732;52.248;-0.844;2023-02-04T00:23:40;102657.17;;;8.04;82.26
62926;BME280;55732;52.248;-0.844;2023-02-04T00:26:05;102658.65;;;8.05;82.35
62926;BME280;55732;52.248;-0.844;2023-02-04T00:28:31;102666.28;;;8.07;82.27
62926;BME280;55732;52.248;-0.844;2023-02-04T00:30:56;102667.22;;;8.09;82.42
62926;BME280;55732;52.248;-0.844;2023-02-04T00:33:22;102663.28;;;8.11;82.29
62926;BME280;55732;52.248;-0.844;2023-02-04T00:35:47;102666.52;;;8.12;82.40
62926;BME280;55732;52.248;-0.844;2023-02-04T00:38:13;102662.37;;;8.14;82.30
62926;BME280;55732;52.248;-0.844;2023-02-04T00:40:38;102670.55;;;8.17;82.33
62926;BME280;55732;52.248;-0.844;2023-02-04T00:43:03;102673.16;;;8.20;82.31
62926;BME280;55732;52.248;-0.844;2023-02-04T00:45:29;102674.41;;;8.25;82.47
62926;BME280;55732;52.248;-0.844;2023-02-04T00:47:54;102678.27;;;8.29;82.38
62926;BME280;55732;52.248;-0.844;2023-02-04T00:50:21;102672.15;;;8.33;82.40
62926;BME280;55732;52.248;-0.844;2023-02-04T00:52:47;102673.38;;;8.38;82.45
62926;BME280;55732;52.248;-0.844;2023-02-04T00:55:12;102669.13;;;8.41;82.34
62926;BME280;55732;52.248;-0.844;2023-02-04T00:57:39;102672.92;;;8.43;82.29
62926;BME280;55732;52.248;-0.844;2023-02-04T01:00:05;102674.45;;;8.46;82.34
62926;BME280;55732;52.248;-0.844;2023-02-04T01:02:31;102681.33;;;8.47;82.34
62926;BME280;55732;52.248;-0.844;2023-02-04T01:04:56;102679.04;;;8.47;82.33
62926;BME280;55732;52.248;-0.844;2023-02-04T01:07:22;102676.39;;;8.46;82.24
62926;BME280;55732;52.248;-0.844;2023-02-04T01:09:47;102675.19;;;8.47;82.31
62926;BME280;55732;52.248;-0.844;2023-02-04T01:12:12;102676.97;;;8.47;82.44
62926;BME280;55732;52.248;-0.844;2023-02-04T01:14:38;102676.87;;;8.49;82.43
62926;BME280;55732;52.248;-0.844;2023-02-04T01:17:03;102681.27;;;8.50;82.45
62926;BME280;55732;52.248;-0.844;2023-02-04T01:19:29;102677.73;;;8.54;82.67
62926;BME280;55732;52.248;-0.844;2023-02-04T01:21:54;102680.35;;;8.57;82.67
62926;BME280;55732;52.248;-0.844;2023-02-04T01:24:19;102683.84;;;8.61;82.64
62926;BME280;55732;52.248;-0.844;2023-02-04T01:26:45;102686.55;;;8.63;82.62
62926;BME280;55732;52.248;-0.844;2023-02-04T01:29:10;102684.59;;;8.67;82.64
62926;BME280;55732;52.248;-0.844;2023-02-04T01:31:36;102685.73;;;8.69;82.61
62926;BME280;55732;52.248;-0.844;2023-02-04T01:34:01;102686.45;;;8.69;82.72
62926;BME280;55732;52.248;-0.844;2023-02-04T01:36:27;102694.38;;;8.70;82.77
62926;BME280;55732;52.248;-0.844;2023-02-04T01:38:52;102694.16;;;8.68;82.93
62926;BME280;55732;52.248;-0.844;2023-02-04T01:41:18;102690.05;;;8.67;82.95
62926;BME280;55732;52.248;-0.844;2023-02-04T01:43:47;102693.83;;;8.69;83.01
62926;BME280;55732;52.248;-0.844;2023-02-04T01:46:13;102698.77;;;8.69;83.22
62926;BME280;55732;52.248;-0.844;2023-02-04T01:48:39;102696.77;;;8.72;83.41
62926;BME280;55732;52.248;-0.844;2023-02-04T01:51:08;102693.65;;;8.74;83.50
62926;BME280;55732;52.248;-0.844;2023-02-04T01:53:36;102699.52;;;8.76;83.58
62926;BME280;55732;52.248;-0.844;2023-02-04T01:56:13;102704.33;;;8.77;83.49
62926;BME280;55732;52.248;-0.844;2023-02-04T01:58:40;102705.40;;;8.78;83.57
62926;BME280;55732;52.248;-0.844;2023-02-04T02:01:12;102704.92;;;8.79;83.48
62926;BME280;55732;52.248;-0.844;2023-02-04T02:03:38;102707.16;;;8.78;83.57
62926;BME280;55732;52.248;-0.844;2023-02-04T02:06:03;102711.19;;;8.78;83.61
62926;BME280;55732;52.248;-0.844;2023-02-04T02:08:31;102709.94;;;8.77;83.81
62926;BME280;55732;52.248;-0.844;2023-02-04T02:10:56;102704.67;;;8.77;83.99
62926;BME280;55732;52.248;-0.844;2023-02-04T02:13:22;102701.73;;;8.78;84.04
62926;BME280;55732;52.248;-0.844;2023-02-04T02:15:47;102700.14;;;8.82;84.19
62926;BME280;55732;52.248;-0.844;2023-02-04T02:18:13;102698.15;;;8.86;84.11
62926;BME280;55732;52.248;-0.844;2023-02-04T02:20:41;102695.54;;;8.86;84.10
62926;BME280;55732;52.248;-0.844;2023-02-04T02:23:19;102696.39;;;8.85;84.16
62926;BME280;55732;52.248;-0.844;2023-02-04T02:25:49;102699.19;;;8.85;84.20
62926;BME280;55732;52.248;-0.844;2023-02-04T02:28:18;102700.58;;;8.84;84.15
62926;BME280;55732;52.248;-0.844;2023-02-04T02:30:46;102693.34;;;8.83;84.28
62926;BME280;55732;52.248;-0.844;2023-02-04T02:33:14;102688.77;;;8.83;84.22
62926;BME280;55732;52.248;-0.844;2023-02-04T02:35:42;102691.98;;;8.84;84.04
62926;BME280;55732;52.248;-0.844;2023-02-04T02:38:10;102697.23;;;8.84;84.19
62926;BME280;55732;52.248;-0.844;2023-02-04T02:40:36;102699.33;;;8.84;84.17
62926;BME280;55732;52.248;-0.844;2023-02-04T02:43:03;102696.15;;;8.83;84.38
62926;BME280;55732;52.248;-0.844;2023-02-04T02:45:30;102691.92;;;8.83;84.42
62926;BME280;55732;52.248;-0.844;2023-02-04T02:47:58;102693.63;;;8.82;84.41
62926;BME280;55732;52.248;-0.844;2023-02-04T02:50:25;102690.80;;;8.81;84.32
62926;BME280;55732;52.248;-0.844;2023-02-04T02:52:52;102689.67;;;8.80;84.54
62926;BME280;55732;52.248;-0.844;2023-02-04T02:55:19;102681.70;;;8.78;84.69
62926;BME280;55732;52.248;-0.844;2023-02-04T02:57:47;102683.95;;;8.77;84.65
62926;BME280;55732;52.248;-0.844;2023-02-04T03:00:33;102686.85;;;8.76;84.64
62926;BME280;55732;52.248;-0.844;2023-02-04T03:03:04;102685.06;;;8.75;84.61
62926;BME280;55732;52.248;-0.844;2023-02-04T03:05:35;102684.86;;;8.74;84.82
62926;BME280;55732;52.248;-0.844;2023-02-04T03:08:03;102685.06;;;8.75;85.01
62926;BME280;55732;52.248;-0.844;2023-02-04T03:10:29;102684.56;;;8.75;84.85
62926;BME280;55732;52.248;-0.844;2023-02-04T03:12:55;102684.05;;;8.76;85.01
62926;BME280;55732;52.248;-0.844;2023-02-04T03:15:21;102688.85;;;8.77;85.01
62926;BME280;55732;52.248;-0.844;2023-02-04T03:17:46;102686.63;;;8.78;84.94
62926;BME280;55732;52.248;-0.844;2023-02-04T03:22:39;102690.48;;;8.82;84.83
62926;BME280;55732;52.248;-0.844;2023-02-04T03:25:05;102678.70;;;8.82;84.96
62926;BME280;55732;52.248;-0.844;2023-02-04T03:27:31;102683.11;;;8.82;85.04
62926;BME280;55732;52.248;-0.844;2023-02-04T03:29:56;102681.54;;;8.83;85.07
62926;BME280;55732;52.248;-0.844;2023-02-04T03:32:22;102681.28;;;8.85;85.09
62926;BME280;55732;52.248;-0.844;2023-02-04T03:34:47;102679.06;;;8.87;84.98
62926;BME280;55732;52.248;-0.844;2023-02-04T03:37:13;102678.38;;;8.88;84.86
62926;BME280;55732;52.248;-0.844;2023-02-04T03:39:38;102676.48;;;8.88;84.85
62926;BME280;55732;52.248;-0.844;2023-02-04T03:42:04;102670.51;;;8.88;84.75
62926;BME280;55732;52.248;-0.844;2023-02-04T03:44:30;102666.50;;;8.89;84.72
62926;BME280;55732;52.248;-0.844;2023-02-04T03:46:55;102668.74;;;8.88;84.85
62926;BME280;55732;52.248;-0.844;2023-02-04T03:49:21;102671.17;;;8.87;84.72
62926;BME280;55732;52.248;-0.844;2023-02-04T03:51:48;102668.20;;;8.88;84.87
62926;BME280;55732;52.248;-0.844;2023-02-04T03:54:13;102668.23;;;8.88;84.72
62926;BME280;55732;52.248;-0.844;2023-02-04T03:56:38;102668.02;;;8.88;84.77
62926;BME280;55732;52.248;-0.844;2023-02-04T03:59:04;102669.77;;;8.87;84.84
62926;BME280;55732;52.248;-0.844;2023-02-04T04:01:29;102674.63;;;8.86;84.85
62926;BME280;55732;52.248;-0.844;2023-02-04T04:03:55;102674.76;;;8.84;84.85
62926;BME280;55732;52.248;-0.844;2023-02-04T04:06:20;102669.11;;;8.83;84.97
62926;BME280;55732;52.248;-0.844;2023-02-04T04:08:45;102669.98;;;8.83;85.13
62926;BME280;55732;52.248;-0.844;2023-02-04T04:11:11;102669.50;;;8.84;84.97
62926;BME280;55732;52.248;-0.844;2023-02-04T04:13:36;102669.16;;;8.85;85.00
62926;BME280;55732;52.248;-0.844;2023-02-04T04:16:02;102676.75;;;8.86;85.00
62926;BME280;55732;52.248;-0.844;2023-02-04T04:18:29;102678.70;;;8.87;85.16
62926;BME280;55732;52.248;-0.844;2023-02-04T04:20:55;102683.43;;;8.86;85.10
62926;BME280;55732;52.248;-0.844;2023-02-04T04:23:21;102686.06;;;8.86;85.07
62926;BME280;55732;52.248;-0.844;2023-02-04T04:25:46;102688.97;;;8.84;85.24
62926;BME280;55732;52.248;-0.844;2023-02-04T04:28:12;102687.23;;;8.84;85.14
62926;BME280;55732;52.248;-0.844;2023-02-04T04:30:37;102690.03;;;8.84;85.08
62926;BME280;55732;52.248;-0.844;2023-02-04T04:33:03;102695.09;;;8.83;85.10
62926;BME280;55732;52.248;-0.844;2023-02-04T04:35:28;102692.71;;;8.81;85.07
62926;BME280;55732;52.248;-0.844;2023-02-04T04:37:54;102694.90;;;8.79;85.29
62926;BME280;55732;52.248;-0.844;2023-02-04T04:40:19;102695.77;;;8.79;85.37
62926;BME280;55732;52.248;-0.844;2023-02-04T04:42:44;102699.05;;;8.77;85.29
62926;BME280;55732;52.248;-0.844;2023-02-04T04:45:11;102698.16;;;8.77;85.71
62926;BME280;55732;52.248;-0.844;2023-02-04T04:47:43;102700.69;;;8.79;85.60
62926;BME280;55732;52.248;-0.844;2023-02-04T04:50:09;102701.91;;;8.78;85.52
62926;BME280;55732;52.248;-0.844;2023-02-04T04:52:34;102705.43;;;8.79;85.51
62926;BME280;55732;52.248;-0.844;2023-02-04T04:54:59;102704.89;;;8.78;85.55
62926;BME280;55732;52.248;-0.844;2023-02-04T04:57:25;102704.34;;;8.77;85.52
62926;BME280;55732;52.248;-0.844;2023-02-04T04:59:50;102706.60;;;8.77;85.63
62926;BME280;55732;52.248;-0.844;2023-02-04T05:02:16;102711.84;;;8.76;85.61
62926;BME280;55732;52.248;-0.844;2023-02-04T05:04:41;102719.39;;;8.76;85.74
62926;BME280;55732;52.248;-0.844;2023-02-04T05:07:06;102718.49;;;8.76;85.84
62926;BME280;55732;52.248;-0.844;2023-02-04T05:09:32;102715.30;;;8.75;85.74
62926;BME280;55732;52.248;-0.844;2023-02-04T05:11:57;102716.33;;;8.75;85.96
62926;BME280;55732;52.248;-0.844;2023-02-04T05:14:22;102717.19;;;8.74;85.85
62926;BME280;55732;52.248;-0.844;2023-02-04T05:16:48;102714.89;;;8.74;86.00
62926;BME280;55732;52.248;-0.844;2023-02-04T05:19:13;102719.27;;;8.74;85.89
62926;BME280;55732;52.248;-0.844;2023-02-04T05:21:39;102718.56;;;8.73;85.92
62926;BME280;55732;52.248;-0.844;2023-02-04T05:24:04;102716.55;;;8.71;86.04
62926;BME280;55732;52.248;-0.844;2023-02-04T05:26:31;102721.92;;;8.69;86.22
62926;BME280;55732;52.248;-0.844;2023-02-04T05:28:57;102722.59;;;8.68;86.13
62926;BME280;55732;52.248;-0.844;2023-02-04T05:31:24;102724.88;;;8.68;86.27
62926;BME280;55732;52.248;-0.844;2023-02-04T05:33:50;102724.70;;;8.68;86.17
62926;BME280;55732;52.248;-0.844;2023-02-04T05:36:15;102728.92;;;8.68;86.18
62926;BME280;55732;52.248;-0.844;2023-02-04T05:38:42;102732.58;;;8.67;86.26
62926;BME280;55732;52.248;-0.844;2023-02-04T05:41:08;102732.73;;;8.67;86.42
62926;BME280;55732;52.248;-0.844;2023-02-04T05:43:33;102735.36;;;8.67;86.32
62926;BME280;55732;52.248;-0.844;2023-02-04T05:46:00;102734.86;;;8.67;86.40
62926;BME280;55732;52.248;-0.844;2023-02-04T05:48:25;102735.89;;;8.67;86.43
62926;BME280;55732;52.248;-0.844;2023-02-04T05:50:51;102735.98;;;8.65;86.32
62926;BME280;55732;52.248;-0.844;2023-02-04T05:53:17;102740.67;;;8.64;86.49
62926;BME280;55732;52.248;-0.844;2023-02-04T05:55:42;102745.02;;;8.63;86.41
62926;BME280;55732;52.248;-0.844;2023-02-04T05:58:07;102742.50;;;8.62;86.61
62926;BME280;55732;52.248;-0.844;2023-02-04T06:00:33;102740.71;;;8.60;86.58
62926;BME280;55732;52.248;-0.844;2023-02-04T06:02:58;102742.77;;;8.59;86.68
62926;BME280;55732;52.248;-0.844;2023-02-04T06:05:23;102742.19;;;8.58;86.67
62926;BME280;55732;52.248;-0.844;2023-02-04T06:07:49;102742.34;;;8.57;86.68
62926;BME280;55732;52.248;-0.844;2023-02-04T06:10:15;102740.04;;;8.57;86.74
62926;BME280;55732;52.248;-0.844;2023-02-04T06:12:40;102736.89;;;8.57;86.79
62926;BME280;55732;52.248;-0.844;2023-02-04T06:15:06;102730.27;;;8.54;86.57
62926;BME280;55732;52.248;-0.844;2023-02-04T06:17:31;102734.84;;;8.55;86.56
62926;BME280;55732;52.248;-0.844;2023-02-04T06:19:57;102737.40;;;8.53;86.77
62926;BME280;55732;52.248;-0.844;2023-02-04T06:22:22;102734.55;;;8.52;86.72
62926;BME280;55732;52.248;-0.844;2023-02-04T06:24:50;102737.25;;;8.49;86.80
62926;BME280;55732;52.248;-0.844;2023-02-04T06:27:16;102739.30;;;8.48;86.72
62926;BME280;55732;52.248;-0.844;2023-02-04T06:29:51;102739.04;;;8.45;86.81
62926;BME280;55732;52.248;-0.844;2023-02-04T06:32:18;102737.25;;;8.45;86.87
62926;BME280;55732;52.248;-0.844;2023-02-04T06:34:44;102737.41;;;8.45;86.76
62926;BME280;55732;52.248;-0.844;2023-02-04T06:37:10;102741.42;;;8.44;86.85
62926;BME280;55732;52.248;-0.844;2023-02-04T06:39:37;102739.27;;;8.43;86.77
62926;BME280;55732;52.248;-0.844;2023-02-04T06:42:02;102738.54;;;8.42;86.77
62926;BME280;55732;52.248;-0.844;2023-02-04T06:44:28;102738.84;;;8.41;86.51
62926;BME280;55732;52.248;-0.844;2023-02-04T06:46:53;102747.45;;;8.42;86.61
62926;BME280;55732;52.248;-0.844;2023-02-04T06:49:18;102750.02;;;8.40;86.56
62926;BME280;55732;52.248;-0.844;2023-02-04T06:51:44;102755.93;;;8.39;86.47
62926;BME280;55732;52.248;-0.844;2023-02-04T06:54:09;102761.16;;;8.38;86.44
62926;BME280;55732;52.248;-0.844;2023-02-04T06:56:35;102758.96;;;8.35;86.41
62926;BME280;55732;52.248;-0.844;2023-02-04T06:59:00;102760.82;;;8.34;86.42
62926;BME280;55732;52.248;-0.844;2023-02-04T07:01:26;102760.41;;;8.32;86.52
62926;BME280;55732;52.248;-0.844;2023-02-04T07:03:51;102769.00;;;8.32;86.33
62926;BME280;55732;52.248;-0.844;2023-02-04T07:06:16;102767.05;;;8.32;86.45
62926;BME280;55732;52.248;-0.844;2023-02-04T07:08:42;102769.74;;;8.33;86.28
62926;BME280;55732;52.248;-0.844;2023-02-04T07:11:07;102771.64;;;8.32;86.18
62926;BME280;55732;52.248;-0.844;2023-02-04T07:13:33;102773.34;;;8.31;86.20
62926;BME280;55732;52.248;-0.844;2023-02-04T07:15:58;102774.73;;;8.31;86.03
62926;BME280;55732;52.248;-0.844;2023-02-04T07:18:23;102772.84;;;8.32;86.04
62926;BME280;55732;52.248;-0.844;2023-02-04T07:20:49;102769.89;;;8.32;86.04
62926;BME280;55732;52.248;-0.844;2023-02-04T07:23:14;102769.06;;;8.33;85.89
62926;BME280;55732;52.248;-0.844;2023-02-04T07:25:39;102770.83;;;8.34;85.77
62926;BME280;55732;52.248;-0.844;2023-02-04T07:28:05;102771.48;;;8.33;85.80
62926;BME280;55732;52.248;-0.844;2023-02-04T07:30:31;102777.66;;;8.30;85.68
62926;BME280;55732;52.248;-0.844;2023-02-04T07:32:56;102781.30;;;8.29;85.71
62926;BME280;55732;52.248;-0.844;2023-02-04T07:35:22;102785.00;;;8.29;85.83
62926;BME280;55732;52.248;-0.844;2023-02-04T07:37:48;102788.96;;;8.31;85.75
62926;BME280;55732;52.248;-0.844;2023-02-04T07:40:14;102791.16;;;8.33;85.57
62926;BME280;55732;52.248;-0.844;2023-02-04T07:42:39;102791.54;;;8.34;85.43
62926;BME280;55732;52.248;-0.844;2023-02-04T07:45:05;102796.61;;;8.33;85.31
62926;BME280;55732;52.248;-0.844;2023-02-04T07:47:31;102795.58;;;8.34;85.28
62926;BME280;55732;52.248;-0.844;2023-02-04T07:49:56;102795.10;;;8.35;85.30
62926;BME280;55732;52.248;-0.844;2023-02-04T07:52:23;102796.20;;;8.36;85.09
62926;BME280;55732;52.248;-0.844;2023-02-04T07:54:48;102802.73;;;8.37;84.99
62926;BME280;55732;52.248;-0.844;2023-02-04T07:57:13;102810.49;;;8.38;85.06
62926;BME280;55732;52.248;-0.844;2023-02-04T07:59:39;102816.35;;;8.40;84.94
62926;BME280;55732;52.248;-0.844;2023-02-04T08:02:05;102817.65;;;8.41;84.68
62926;BME280;55732;52.248;-0.844;2023-02-04T08:04:31;102818.42;;;8.43;84.58
62926;BME280;55732;52.248;-0.844;2023-02-04T08:06:56;102818.33;;;8.45;84.68
62926;BME280;55732;52.248;-0.844;2023-02-04T08:09:22;102818.11;;;8.47;84.40
62926;BME280;55732;52.248;-0.844;2023-02-04T08:11:48;102822.94;;;8.49;84.29
62926;BME280;55732;52.248;-0.844;2023-02-04T08:14:13;102820.40;;;8.52;84.19
62926;BME280;55732;52.248;-0.844;2023-02-04T08:16:39;102819.27;;;8.54;83.90
62926;BME280;55732;52.248;-0.844;2023-02-04T08:19:04;102821.97;;;8.55;83.80
62926;BME280;55732;52.248;-0.844;2023-02-04T08:21:30;102821.34;;;8.57;83.68
62926;BME280;55732;52.248;-0.844;2023-02-04T08:23:55;102829.92;;;8.60;83.48
62926;BME280;55732;52.248;-0.844;2023-02-04T08:26:20;102831.30;;;8.64;83.43
62926;BME280;55732;52.248;-0.844;2023-02-04T08:28:46;102834.25;;;8.67;83.29
62926;BME280;55732;52.248;-0.844;2023-02-04T08:31:11;102837.38;;;8.71;83.24
62926;BME280;55732;52.248;-0.844;2023-02-04T08:33:38;102837.73;;;8.75;83.16
62926;BME280;55732;52.248;-0.844;2023-02-04T08:36:07;102834.16;;;8.78;82.83
62926;BME280;55732;52.248;-0.844;2023-02-04T08:38:32;102835.01;;;8.81;82.61
62926;BME280;55732;52.248;-0.844;2023-02-04T08:40:58;102838.90;;;8.86;82.72
62926;BME280;55732;52.248;-0.844;2023-02-04T08:43:25;102845.79;;;8.91;82.41
62926;BME280;55732;52.248;-0.844;2023-02-04T08:45:50;102848.45;;;8.96;82.33
62926;BME280;55732;52.248;-0.844;2023-02-04T08:48:16;102850.05;;;9.00;82.09
62926;BME280;55732;52.248;-0.844;2023-02-04T08:50:41;102856.53;;;9.04;82.16
62926;BME280;55732;52.248;-0.844;2023-02-04T08:53:07;102851.89;;;9.07;81.90
62926;BME280;55732;52.248;-0.844;2023-02-04T08:55:32;102851.70;;;9.11;81.76
62926;BME280;55732;52.248;-0.844;2023-02-04T08:57:58;102854.75;;;9.16;81.45
62926;BME280;55732;52.248;-0.844;2023-02-04T09:00:24;102849.60;;;9.19;81.26
62926;BME280;55732;52.248;-0.844;2023-02-04T09:02:49;102852.02;;;9.23;81.08
62926;BME280;55732;52.248;-0.844;2023-02-04T09:05:15;102856.88;;;9.26;80.62
62926;BME280;55732;52.248;-0.844;2023-02-04T09:07:40;102862.20;;;9.27;80.33
62926;BME280;55732;52.248;-0.844;2023-02-04T09:10:06;102863.14;;;9.28;80.20
62926;BME280;55732;52.248;-0.844;2023-02-04T09:12:32;102866.73;;;9.29;79.96
62926;BME280;55732;52.248;-0.844;2023-02-04T09:14:58;102864.89;;;9.32;79.81
62926;BME280;55732;52.248;-0.844;2023-02-04T09:17:23;102866.30;;;9.37;79.88
62926;BME280;55732;52.248;-0.844;2023-02-04T09:19:48;102862.10;;;9.41;79.53
62926;BME280;55732;52.248;-0.844;2023-02-04T09:22:14;102867.34;;;9.46;79.71
62926;BME280;55732;52.248;-0.844;2023-02-04T09:24:40;102865.01;;;9.49;79.30
62926;BME280;55732;52.248;-0.844;2023-02-04T09:27:05;102868.41;;;9.50;78.96
62926;BME280;55732;52.248;-0.844;2023-02-04T09:29:30;102871.53;;;9.53;79.11
62926;BME280;55732;52.248;-0.844;2023-02-04T09:31:57;102869.77;;;9.58;78.95
62926;BME280;55732;52.248;-0.844;2023-02-04T09:34:22;102869.63;;;9.63;78.79
62926;BME280;55732;52.248;-0.844;2023-02-04T09:36:48;102872.09;;;9.68;78.48
62926;BME280;55732;52.248;-0.844;2023-02-04T09:39:13;102878.77;;;9.72;78.39
62926;BME280;55732;52.248;-0.844;2023-02-04T09:41:39;102880.84;;;9.80;78.01
62926;BME280;55732;52.248;-0.844;2023-02-04T09:44:12;102878.95;;;9.90;77.83
62926;BME280;55732;52.248;-0.844;2023-02-04T09:46:38;102876.29;;;10.08;77.45
62926;BME280;55732;52.248;-0.844;2023-02-04T09:49:04;102876.45;;;10.31;77.10
62926;BME280;55732;52.248;-0.844;2023-02-04T09:51:32;102879.34;;;10.57;76.64
62926;BME280;55732;52.248;-0.844;2023-02-04T09:54:12;102883.97;;;10.83;75.99
62926;BME280;55732;52.248;-0.844;2023-02-04T09:56:39;102883.90;;;11.02;75.40
62926;BME280;55732;52.248;-0.844;2023-02-04T09:59:12;102876.21;;;11.14;74.78
62926;BME280;55732;52.248;-0.844;2023-02-04T10:01:38;102881.81;;;11.29;74.33
62926;BME280;55732;52.248;-0.844;2023-02-04T10:04:04;102873.66;;;11.44;73.84
62926;BME280;55732;52.248;-0.844;2023-02-04T10:06:30;102870.16;;;11.56;73.48
62926;BME280;55732;52.248;-0.844;2023-02-04T10:08:56;102872.75;;;11.66;73.42
62926;BME280;55732;52.248;-0.844;2023-02-04T10:11:24;102872.83;;;11.68;72.97
62926;BME280;55732;52.248;-0.844;2023-02-04T10:13:53;102871.80;;;11.69;72.87
62926;BME280;55732;52.248;-0.844;2023-02-04T10:16:27;102873.09;;;11.71;72.79
62926;BME280;55732;52.248;-0.844;2023-02-04T10:18:57;102873.53;;;11.68;72.18
62926;BME280;55732;52.248;-0.844;2023-02-04T10:21:31;102875.95;;;11.61;72.10
62926;BME280;55732;52.248;-0.844;2023-02-04T10:24:00;102877.52;;;11.54;71.97
62926;BME280;55732;52.248;-0.844;2023-02-04T10:26:28;102880.77;;;11.51;71.98
62926;BME280;55732;52.248;-0.844;2023-02-04T10:29:04;102881.19;;;11.48;72.04
62926;BME280;55732;52.248;-0.844;2023-02-04T10:31:38;102882.20;;;11.41;71.84
62926;BME280;55732;52.248;-0.844;2023-02-04T10:34:11;102883.52;;;11.32;71.73
62926;BME280;55732;52.248;-0.844;2023-02-04T10:36:38;102886.85;;;11.26;71.91
62926;BME280;55732;52.248;-0.844;2023-02-04T10:39:18;102887.42;;;11.22;72.04
62926;BME280;55732;52.248;-0.844;2023-02-04T10:41:48;102888.41;;;11.15;72.11
62926;BME280;55732;52.248;-0.844;2023-02-04T10:44:16;102885.39;;;11.09;71.99
62926;BME280;55732;52.248;-0.844;2023-02-04T10:46:42;102888.98;;;11.06;72.08
62926;BME280;55732;52.248;-0.844;2023-02-04T10:49:20;102889.95;;;11.04;72.26
62926;BME280;55732;52.248;-0.844;2023-02-04T10:51:47;102893.36;;;11.00;72.03
62926;BME280;55732;52.248;-0.844;2023-02-04T10:54:13;102894.95;;;10.95;72.03
62926;BME280;55732;52.248;-0.844;2023-02-04T10:59:23;102891.96;;;10.91;72.08
62926;BME280;55732;52.248;-0.844;2023-02-04T11:01:54;102894.83;;;10.86;72.01
62926;BME280;55732;52.248;-0.844;2023-02-04T11:04:20;102898.65;;;10.84;72.01
62926;BME280;55732;52.248;-0.844;2023-02-04T11:06:46;102900.73;;;10.83;72.10
62926;BME280;55732;52.248;-0.844;2023-02-04T11:09:13;102903.16;;;10.82;72.16
62926;BME280;55732;52.248;-0.844;2023-02-04T11:11:43;102904.40;;;10.83;72.18
62926;BME280;55732;52.248;-0.844;2023-02-04T11:14:26;102902.84;;;10.83;72.11
62926;BME280;55732;52.248;-0.844;2023-02-04T11:16:53;102908.32;;;10.83;71.75
62926;BME280;55732;52.248;-0.844;2023-02-04T11:19:38;102909.81;;;10.81;71.55
62926;BME280;55732;52.248;-0.844;2023-02-04T11:22:20;102911.04;;;10.76;71.40
62926;BME280;55732;52.248;-0.844;2023-02-04T11:24:47;102915.48;;;10.72;71.56
62926;BME280;55732;52.248;-0.844;2023-02-04T11:27:24;102916.33;;;10.66;71.74
62926;BME280;55732;52.248;-0.844;2023-02-04T11:29:51;102917.58;;;10.61;71.74
62926;BME280;55732;52.248;-0.844;2023-02-04T11:32:36;102917.14;;;10.59;71.89
62926;BME280;55732;52.248;-0.844;2023-02-04T11:37:39;102921.39;;;10.55;71.90
62926;BME280;55732;52.248;-0.844;2023-02-04T11:40:34;102920.27;;;10.54;72.01
62926;BME280;55732;52.248;-0.844;2023-02-04T11:43:08;102923.55;;;10.52;72.01
62926;BME280;55732;52.248;-0.844;2023-02-04T11:45:41;102920.50;;;10.50;71.82
62926;BME280;55732;52.248;-0.844;2023-02-04T11:48:16;102924.01;;;10.49;71.56
62926;BME280;55732;52.248;-0.844;2023-02-04T11:50:54;102922.05;;;10.49;71.66
62926;BME280;55732;52.248;-0.844;2023-02-04T11:53:23;102926.34;;;10.51;71.59
62926;BME280;55732;52.248;-0.844;2023-02-04T11:55:49;102918.52;;;10.54;71.37
62926;BME280;55732;52.248;-0.844;2023-02-04T11:58:17;102917.77;;;10.58;71.29
62926;BME280;55732;52.248;-0.844;2023-02-04T12:00:43;102915.14;;;10.63;71.24
62926;BME280;55732;52.248;-0.844;2023-02-04T12:03:22;102916.58;;;10.68;71.00
62926;BME280;55732;52.248;-0.844;2023-02-04T12:05:48;102916.30;;;10.70;70.51
62926;BME280;55732;52.248;-0.844;2023-02-04T12:08:24;102917.55;;;10.71;70.36
62926;BME280;55732;52.248;-0.844;2023-02-04T12:11:10;102912.20;;;10.74;70.21
62926;BME280;55732;52.248;-0.844;2023-02-04T12:13:48;102913.02;;;10.82;69.91
62926;BME280;55732;52.248;-0.844;2023-02-04T12:16:14;102911.14;;;10.89;69.57
62926;BME280;55732;52.248;-0.844;2023-02-04T12:18:40;102916.36;;;10.92;68.97
62926;BME280;55732;52.248;-0.844;2023-02-04T12:21:05;102922.36;;;10.92;68.63
62926;BME280;55732;52.248;-0.844;2023-02-04T12:23:31;102923.95;;;10.93;68.49
62926;BME280;55732;52.248;-0.844;2023-02-04T12:25:58;102918.27;;;10.91;68.12
62926;BME280;55732;52.248;-0.844;2023-02-04T12:28:24;102919.79;;;10.90;68.06
62926;BME280;55732;52.248;-0.844;2023-02-04T12:30:49;102917.11;;;10.89;68.00
62926;BME280;55732;52.248;-0.844;2023-02-04T12:33:15;102916.48;;;10.85;67.77
62926;BME280;55732;52.248;-0.844;2023-02-04T12:35:40;102920.59;;;10.82;67.80
62926;BME280;55732;52.248;-0.844;2023-02-04T12:38:06;102915.91;;;10.79;67.55
62926;BME280;55732;52.248;-0.844;2023-02-04T12:40:31;102924.23;;;10.75;67.58
62926;BME280;55732;52.248;-0.844;2023-02-04T12:42:57;102921.52;;;10.74;67.44
62926;BME280;55732;52.248;-0.844;2023-02-04T12:45:23;102914.39;;;10.76;67.24
62926;BME280;55732;52.248;-0.844;2023-02-04T12:47:48;102914.34;;;10.80;67.31
62926;BME280;55732;52.248;-0.844;2023-02-04T12:50:16;102909.34;;;10.83;67.23
62926;BME280;55732;52.248;-0.844;2023-02-04T12:52:55;102909.38;;;10.83;67.07
62926;BME280;55732;52.248;-0.844;2023-02-04T12:55:22;102908.02;;;10.80;67.01